sensor_id;sensor_type;location;lat;lon;timestamp;temperature;humidity
33139;DHT22;19501;50.948;5.316;2023-06-22T00:02:16;22.10;99.90
33139;DHT22;19501;50.948;5.316;2023-06-22T00:04:42;22.40;99.90
33139;DHT22;19501;50.948;5.316;2023-06-22T00:07:07;22.50;99.90
33139;DHT22;19501;50.948;5.316;2023-06-22T00:09:35;22.60;99.90
33139;DHT22;19501;50.948;5.316;2023-06-22T00:12:01;22.40;99.90
33139;DHT22;19501;50.948;5.316;2023-06-22T00:14:27;22.50;99.90
33139;DHT22;19501;50.948;5.316;2023-06-22T00:16:53;22.30;99.90
33139;DHT22;19501;50.948;5.316;2023-06-22T00:19:24;22.20;99.90
33139;DHT22;19501;50.948;5.316;2023-06-22T00:21:50;22.10;99.90
33139;DHT22;19501;50.948;5.316;2023-06-22T00:24:19;22.00;99.90
33139;DHT22;19501;50.948;5.316;2023-06-22T00:26:45;22.00;99.90
33139;DHT22;19501;50.948;5.316;2023-06-22T00:29:11;22.00;99.90
33139;DHT22;19501;50.948;5.316;2023-06-22T00:31:37;21.90;99.90
33139;DHT22;19501;50.948;5.316;2023-06-22T00:34:03;21.80;99.90
33139;DHT22;19501;50.948;5.316;2023-06-22T00:36:28;21.80;99.90
33139;DHT22;19501;50.948;5.316;2023-06-22T00:38:54;21.70;99.90
33139;DHT22;19501;50.948;5.316;2023-06-22T00:41:20;21.70;99.90
33139;DHT22;19501;50.948;5.316;2023-06-22T00:43:45;21.70;99.90
33139;DHT22;19501;50.948;5.316;2023-06-22T00:46:11;21.80;99.90
33139;DHT22;19501;50.948;5.316;2023-06-22T00:48:37;21.80;99.90
33139;DHT22;19501;50.948;5.316;2023-06-22T00:51:03;21.90;99.90
33139;DHT22;19501;50.948;5.316;2023-06-22T00:53:29;22.00;99.90
33139;DHT22;19501;50.948;5.316;2023-06-22T00:55:55;22.00;99.90
33139;DHT22;19501;50.948;5.316;2023-06-22T00:58:21;22.00;99.90
33139;DHT22;19501;50.948;5.316;2023-06-22T01:00:48;22.00;99.90
33139;DHT22;19501;50.948;5.316;2023-06-22T01:03:16;21.90;99.90
33139;DHT22;19501;50.948;5.316;2023-06-22T01:05:46;22.00;99.90
33139;DHT22;19501;50.948;5.316;2023-06-22T01:09:00;21.90;99.90
33139;DHT22;19501;50.948;5.316;2023-06-22T01:11:39;21.80;99.90
33139;DHT22;19501;50.948;5.316;2023-06-22T01:14:50;21.80;99.90
33139;DHT22;19501;50.948;5.316;2023-06-22T01:17:08;21.90;99.90
33139;DHT22;19501;50.948;5.316;2023-06-22T01:19:54;22.00;99.90
33139;DHT22;19501;50.948;5.316;2023-06-22T01:22:23;22.00;99.90
33139;DHT22;19501;50.948;5.316;2023-06-22T01:25:13;22.20;99.90
33139;DHT22;19501;50.948;5.316;2023-06-22T01:27:53;22.30;99.90
33139;DHT22;19501;50.948;5.316;2023-06-22T01:30:22;22.50;99.90
33139;DHT22;19501;50.948;5.316;2023-06-22T01:32:51;22.50;99.90
33139;DHT22;19501;50.948;5.316;2023-06-22T01:35:18;22.50;99.90
33139;DHT22;19501;50.948;5.316;2023-06-22T01:37:44;22.40;99.90
33139;DHT22;19501;50.948;5.316;2023-06-22T01:40:13;22.40;99.90
33139;DHT22;19501;50.948;5.316;2023-06-22T01:42:41;22.40;99.90
33139;DHT22;19501;50.948;5.316;2023-06-22T01:45:10;22.20;99.90
33139;DHT22;19501;50.948;5.316;2023-06-22T01:47:36;22.10;99.90
33139;DHT22;19501;50.948;5.316;2023-06-22T01:50:03;22.10;99.90
33139;DHT22;19501;50.948;5.316;2023-06-22T01:52:29;22.10;99.90
33139;DHT22;19501;50.948;5.316;2023-06-22T01:54:54;22.10;99.90
33139;DHT22;19501;50.948;5.316;2023-06-22T01:57:23;22.10;99.90
33139;DHT22;19501;50.948;5.316;2023-06-22T02:00:02;22.00;99.90
33139;DHT22;19501;50.948;5.316;2023-06-22T02:02:36;22.00;99.90
33139;DHT22;19501;50.948;5.316;2023-06-22T02:05:09;22.10;99.90
33139;DHT22;19501;50.948;5.316;2023-06-22T02:07:49;21.80;99.90
33139;DHT22;19501;50.948;5.316;2023-06-22T02:10:20;21.60;99.90
33139;DHT22;19501;50.948;5.316;2023-06-22T02:12:47;21.50;99.90
33139;DHT22;19501;50.948;5.316;2023-06-22T02:15:13;21.40;99.90
33139;DHT22;19501;50.948;5.316;2023-06-22T02:17:40;21.30;99.90
33139;DHT22;19501;50.948;5.316;2023-06-22T02:20:13;21.10;99.90
33139;DHT22;19501;50.948;5.316;2023-06-22T02:22:38;20.70;99.90
33139;DHT22;19501;50.948;5.316;2023-06-22T02:25:04;20.80;99.90
33139;DHT22;19501;50.948;5.316;2023-06-22T02:27:30;20.80;99.90
33139;DHT22;19501;50.948;5.316;2023-06-22T02:29:56;20.70;99.90
33139;DHT22;19501;50.948;5.316;2023-06-22T02:32:22;20.70;99.90
33139;DHT22;19501;50.948;5.316;2023-06-22T02:34:48;20.70;99.90
33139;DHT22;19501;50.948;5.316;2023-06-22T02:37:14;20.80;99.90
33139;DHT22;19501;50.948;5.316;2023-06-22T02:39:42;21.00;99.90
33139;DHT22;19501;50.948;5.316;2023-06-22T02:42:10;21.10;99.90
33139;DHT22;19501;50.948;5.316;2023-06-22T02:44:37;21.30;99.90
33139;DHT22;19501;50.948;5.316;2023-06-22T02:47:03;21.30;99.90
33139;DHT22;19501;50.948;5.316;2023-06-22T02:49:29;21.30;99.90
33139;DHT22;19501;50.948;5.316;2023-06-22T02:51:54;21.30;99.90
33139;DHT22;19501;50.948;5.316;2023-06-22T02:54:20;21.40;99.90
33139;DHT22;19501;50.948;5.316;2023-06-22T02:56:46;21.40;99.90
33139;DHT22;19501;50.948;5.316;2023-06-22T02:59:15;21.30;99.90
33139;DHT22;19501;50.948;5.316;2023-06-22T03:01:41;21.40;99.90
33139;DHT22;19501;50.948;5.316;2023-06-22T03:04:07;21.30;99.90
33139;DHT22;19501;50.948;5.316;2023-06-22T03:06:33;21.30;99.90
33139;DHT22;19501;50.948;5.316;2023-06-22T03:09:01;21.20;99.90
33139;DHT22;19501;50.948;5.316;2023-06-22T03:11:28;21.20;99.90
33139;DHT22;19501;50.948;5.316;2023-06-22T03:13:54;21.20;99.90
33139;DHT22;19501;50.948;5.316;2023-06-22T03:16:20;21.30;99.90
33139;DHT22;19501;50.948;5.316;2023-06-22T03:18:45;21.20;99.90
33139;DHT22;19501;50.948;5.316;2023-06-22T03:21:11;21.10;99.90
33139;DHT22;19501;50.948;5.316;2023-06-22T03:23:37;21.10;99.90
33139;DHT22;19501;50.948;5.316;2023-06-22T03:26:03;21.20;99.90
33139;DHT22;19501;50.948;5.316;2023-06-22T03:28:29;21.00;99.90
33139;DHT22;19501;50.948;5.316;2023-06-22T03:30:57;21.00;99.90
33139;DHT22;19501;50.948;5.316;2023-06-22T03:33:23;21.10;99.90
33139;DHT22;19501;50.948;5.316;2023-06-22T03:35:49;21.10;99.90
33139;DHT22;19501;50.948;5.316;2023-06-22T03:38:16;21.10;99.90
33139;DHT22;19501;50.948;5.316;2023-06-22T03:40:41;21.10;99.90
33139;DHT22;19501;50.948;5.316;2023-06-22T03:43:07;21.10;99.90
33139;DHT22;19501;50.948;5.316;2023-06-22T03:45:33;21.10;99.90
33139;DHT22;19501;50.948;5.316;2023-06-22T03:47:59;21.10;99.90
33139;DHT22;19501;50.948;5.316;2023-06-22T03:50:25;21.10;99.90
33139;DHT22;19501;50.948;5.316;2023-06-22T03:52:51;21.10;99.90
33139;DHT22;19501;50.948;5.316;2023-06-22T03:55:19;21.40;99.90
33139;DHT22;19501;50.948;5.316;2023-06-22T03:57:45;21.30;99.90
33139;DHT22;19501;50.948;5.316;2023-06-22T04:00:11;21.30;99.90
33139;DHT22;19501;50.948;5.316;2023-06-22T04:02:37;21.20;99.90
33139;DHT22;19501;50.948;5.316;2023-06-22T04:05:02;21.20;99.90
33139;DHT22;19501;50.948;5.316;2023-06-22T04:07:28;21.30;99.90
33139;DHT22;19501;50.948;5.316;2023-06-22T04:09:54;21.30;99.90
33139;DHT22;19501;50.948;5.316;2023-06-22T04:12:20;21.40;99.90
33139;DHT22;19501;50.948;5.316;2023-06-22T04:14:45;21.50;99.90
33139;DHT22;19501;50.948;5.316;2023-06-22T04:17:11;21.50;99.90
33139;DHT22;19501;50.948;5.316;2023-06-22T04:19:39;21.50;99.90
33139;DHT22;19501;50.948;5.316;2023-06-22T04:22:05;21.50;99.90
33139;DHT22;19501;50.948;5.316;2023-06-22T04:24:33;21.50;99.90
33139;DHT22;19501;50.948;5.316;2023-06-22T04:26:59;21.40;99.90
33139;DHT22;19501;50.948;5.316;2023-06-22T04:29:31;21.50;99.90
33139;DHT22;19501;50.948;5.316;2023-06-22T04:31:57;21.70;99.90
33139;DHT22;19501;50.948;5.316;2023-06-22T04:34:29;21.60;99.90
33139;DHT22;19501;50.948;5.316;2023-06-22T04:36:54;21.80;99.90
33139;DHT22;19501;50.948;5.316;2023-06-22T04:39:20;21.90;99.90
33139;DHT22;19501;50.948;5.316;2023-06-22T04:41:46;22.10;99.90
33139;DHT22;19501;50.948;5.316;2023-06-22T04:44:13;22.20;99.90
33139;DHT22;19501;50.948;5.316;2023-06-22T04:46:39;22.30;99.90
33139;DHT22;19501;50.948;5.316;2023-06-22T04:49:09;22.10;99.90
33139;DHT22;19501;50.948;5.316;2023-06-22T04:51:41;22.10;99.90
33139;DHT22;19501;50.948;5.316;2023-06-22T04:54:08;22.20;99.90
33139;DHT22;19501;50.948;5.316;2023-06-22T04:56:34;22.10;99.90
33139;DHT22;19501;50.948;5.316;2023-06-22T04:59:00;22.10;99.90
33139;DHT22;19501;50.948;5.316;2023-06-22T05:01:26;21.90;99.90
33139;DHT22;19501;50.948;5.316;2023-06-22T05:03:52;22.00;99.90
33139;DHT22;19501;50.948;5.316;2023-06-22T05:06:24;22.00;99.90
33139;DHT22;19501;50.948;5.316;2023-06-22T05:09:01;21.90;99.90
33139;DHT22;19501;50.948;5.316;2023-06-22T05:11:28;21.70;99.90
33139;DHT22;19501;50.948;5.316;2023-06-22T05:13:55;21.50;99.90
33139;DHT22;19501;50.948;5.316;2023-06-22T05:16:22;21.50;99.90
33139;DHT22;19501;50.948;5.316;2023-06-22T05:18:53;21.40;99.90
33139;DHT22;19501;50.948;5.316;2023-06-22T05:21:23;21.40;99.90
33139;DHT22;19501;50.948;5.316;2023-06-22T05:23:50;21.30;99.90
33139;DHT22;19501;50.948;5.316;2023-06-22T05:26:16;21.30;99.90
33139;DHT22;19501;50.948;5.316;2023-06-22T05:28:44;21.20;99.90
33139;DHT22;19501;50.948;5.316;2023-06-22T05:31:16;21.10;99.90
33139;DHT22;19501;50.948;5.316;2023-06-22T05:33:43;21.00;99.90
33139;DHT22;19501;50.948;5.316;2023-06-22T05:36:10;20.90;99.90
33139;DHT22;19501;50.948;5.316;2023-06-22T05:38:36;21.00;99.90
33139;DHT22;19501;50.948;5.316;2023-06-22T05:41:03;21.10;99.90
33139;DHT22;19501;50.948;5.316;2023-06-22T05:43:28;21.10;99.90
33139;DHT22;19501;50.948;5.316;2023-06-22T05:45:54;21.20;99.90
33139;DHT22;19501;50.948;5.316;2023-06-22T05:48:20;21.20;99.90
33139;DHT22;19501;50.948;5.316;2023-06-22T05:50:46;21.40;99.90
33139;DHT22;19501;50.948;5.316;2023-06-22T05:53:11;21.20;99.90
33139;DHT22;19501;50.948;5.316;2023-06-22T05:55:37;21.20;99.90
33139;DHT22;19501;50.948;5.316;2023-06-22T05:58:03;21.10;99.90
33139;DHT22;19501;50.948;5.316;2023-06-22T06:00:29;21.10;99.90
33139;DHT22;19501;50.948;5.316;2023-06-22T06:02:55;21.20;99.90
33139;DHT22;19501;50.948;5.316;2023-06-22T06:05:20;21.30;99.90
33139;DHT22;19501;50.948;5.316;2023-06-22T06:07:46;21.20;99.90
33139;DHT22;19501;50.948;5.316;2023-06-22T06:10:12;21.30;99.90
33139;DHT22;19501;50.948;5.316;2023-06-22T06:12:38;21.20;99.90
33139;DHT22;19501;50.948;5.316;2023-06-22T06:15:04;21.40;99.90
33139;DHT22;19501;50.948;5.316;2023-06-22T06:17:30;21.60;99.90
33139;DHT22;19501;50.948;5.316;2023-06-22T06:19:56;21.60;99.90
33139;DHT22;19501;50.948;5.316;2023-06-22T06:22:22;21.50;99.90
33139;DHT22;19501;50.948;5.316;2023-06-22T06:24:49;21.60;99.90
33139;DHT22;19501;50.948;5.316;2023-06-22T06:27:14;21.70;99.90
33139;DHT22;19501;50.948;5.316;2023-06-22T06:29:40;21.60;99.90
33139;DHT22;19501;50.948;5.316;2023-06-22T06:32:06;21.70;99.90
33139;DHT22;19501;50.948;5.316;2023-06-22T06:34:32;21.70;99.90
33139;DHT22;19501;50.948;5.316;2023-06-22T06:36:57;21.90;99.90
33139;DHT22;19501;50.948;5.316;2023-06-22T06:39:23;22.10;99.90
33139;DHT22;19501;50.948;5.316;2023-06-22T06:41:49;22.00;99.90
33139;DHT22;19501;50.948;5.316;2023-06-22T06:44:15;21.90;99.90
33139;DHT22;19501;50.948;5.316;2023-06-22T06:46:41;21.90;99.90
33139;DHT22;19501;50.948;5.316;2023-06-22T06:49:07;22.10;99.90
33139;DHT22;19501;50.948;5.316;2023-06-22T06:51:33;22.30;99.90
33139;DHT22;19501;50.948;5.316;2023-06-22T06:53:58;22.30;99.90
33139;DHT22;19501;50.948;5.316;2023-06-22T06:56:24;22.40;99.90
33139;DHT22;19501;50.948;5.316;2023-06-22T06:58:50;22.40;99.90
33139;DHT22;19501;50.948;5.316;2023-06-22T07:01:16;22.60;99.90
33139;DHT22;19501;50.948;5.316;2023-06-22T07:03:42;22.60;99.90
33139;DHT22;19501;50.948;5.316;2023-06-22T07:06:10;22.60;99.90
33139;DHT22;19501;50.948;5.316;2023-06-22T07:08:35;22.60;99.90
33139;DHT22;19501;50.948;5.316;2023-06-22T07:11:02;22.60;99.90
33139;DHT22;19501;50.948;5.316;2023-06-22T07:13:27;22.60;99.90
33139;DHT22;19501;50.948;5.316;2023-06-22T07:15:53;22.60;99.90
33139;DHT22;19501;50.948;5.316;2023-06-22T07:18:21;22.90;99.90
33139;DHT22;19501;50.948;5.316;2023-06-22T07:20:47;23.10;99.90
33139;DHT22;19501;50.948;5.316;2023-06-22T07:23:13;23.20;99.90
33139;DHT22;19501;50.948;5.316;2023-06-22T07:25:38;23.20;99.90
33139;DHT22;19501;50.948;5.316;2023-06-22T07:28:06;23.20;99.90
33139;DHT22;19501;50.948;5.316;2023-06-22T07:30:32;23.00;99.90
33139;DHT22;19501;50.948;5.316;2023-06-22T07:32:58;23.00;99.90
33139;DHT22;19501;50.948;5.316;2023-06-22T07:35:29;23.00;99.90
33139;DHT22;19501;50.948;5.316;2023-06-22T07:37:55;23.10;99.90
33139;DHT22;19501;50.948;5.316;2023-06-22T07:40:20;23.20;99.90
33139;DHT22;19501;50.948;5.316;2023-06-22T07:42:46;22.90;99.90
33139;DHT22;19501;50.948;5.316;2023-06-22T07:45:13;23.00;99.90
33139;DHT22;19501;50.948;5.316;2023-06-22T07:47:42;23.20;99.90
33139;DHT22;19501;50.948;5.316;2023-06-22T07:50:08;23.20;99.90
33139;DHT22;19501;50.948;5.316;2023-06-22T07:52:33;23.10;99.90
33139;DHT22;19501;50.948;5.316;2023-06-22T07:54:59;23.20;99.90
33139;DHT22;19501;50.948;5.316;2023-06-22T07:57:25;23.10;99.90
33139;DHT22;19501;50.948;5.316;2023-06-22T08:00:03;23.00;99.90
33139;DHT22;19501;50.948;5.316;2023-06-22T08:02:47;22.90;99.90
33139;DHT22;19501;50.948;5.316;2023-06-22T08:05:15;23.00;99.90
33139;DHT22;19501;50.948;5.316;2023-06-22T08:07:41;23.10;99.90
33139;DHT22;19501;50.948;5.316;2023-06-22T08:10:11;23.50;99.90
33139;DHT22;19501;50.948;5.316;2023-06-22T08:12:36;23.70;99.90
33139;DHT22;19501;50.948;5.316;2023-06-22T08:15:02;23.90;99.90
33139;DHT22;19501;50.948;5.316;2023-06-22T08:17:28;23.70;99.90
33139;DHT22;19501;50.948;5.316;2023-06-22T08:19:54;23.70;99.90
33139;DHT22;19501;50.948;5.316;2023-06-22T08:22:20;23.80;99.90
33139;DHT22;19501;50.948;5.316;2023-06-22T08:24:45;24.00;99.90
33139;DHT22;19501;50.948;5.316;2023-06-22T08:27:11;23.90;99.90
33139;DHT22;19501;50.948;5.316;2023-06-22T08:29:39;23.90;99.90
33139;DHT22;19501;50.948;5.316;2023-06-22T08:32:05;24.00;99.90
33139;DHT22;19501;50.948;5.316;2023-06-22T08:34:30;23.70;99.90
33139;DHT22;19501;50.948;5.316;2023-06-22T08:36:56;23.90;99.90
33139;DHT22;19501;50.948;5.316;2023-06-22T08:39:24;23.90;99.90
33139;DHT22;19501;50.948;5.316;2023-06-22T08:41:50;23.90;99.90
33139;DHT22;19501;50.948;5.316;2023-06-22T08:44:18;23.50;99.90
33139;DHT22;19501;50.948;5.316;2023-06-22T08:46:45;23.90;99.90
33139;DHT22;19501;50.948;5.316;2023-06-22T08:49:11;24.20;99.90
33139;DHT22;19501;50.948;5.316;2023-06-22T08:51:36;24.40;99.90
33139;DHT22;19501;50.948;5.316;2023-06-22T08:54:02;24.00;99.90
33139;DHT22;19501;50.948;5.316;2023-06-22T08:56:28;24.00;99.90
33139;DHT22;19501;50.948;5.316;2023-06-22T08:58:53;23.90;99.90
33139;DHT22;19501;50.948;5.316;2023-06-22T09:01:19;24.10;99.90
33139;DHT22;19501;50.948;5.316;2023-06-22T09:03:45;24.20;99.90
33139;DHT22;19501;50.948;5.316;2023-06-22T09:06:20;24.30;99.90
33139;DHT22;19501;50.948;5.316;2023-06-22T09:08:46;24.10;99.90
33139;DHT22;19501;50.948;5.316;2023-06-22T09:11:12;24.00;99.90
33139;DHT22;19501;50.948;5.316;2023-06-22T09:13:38;23.90;99.90
33139;DHT22;19501;50.948;5.316;2023-06-22T09:16:04;24.00;99.90
33139;DHT22;19501;50.948;5.316;2023-06-22T09:18:30;24.00;99.90
33139;DHT22;19501;50.948;5.316;2023-06-22T09:20:55;23.90;99.90
33139;DHT22;19501;50.948;5.316;2023-06-22T09:23:21;23.70;99.90
33139;DHT22;19501;50.948;5.316;2023-06-22T09:25:47;23.70;99.90
33139;DHT22;19501;50.948;5.316;2023-06-22T09:28:14;23.80;99.90
33139;DHT22;19501;50.948;5.316;2023-06-22T09:30:39;23.70;99.90
33139;DHT22;19501;50.948;5.316;2023-06-22T09:33:05;23.50;99.90
33139;DHT22;19501;50.948;5.316;2023-06-22T09:35:31;23.70;99.90
33139;DHT22;19501;50.948;5.316;2023-06-22T09:37:56;23.90;99.90
33139;DHT22;19501;50.948;5.316;2023-06-22T09:40:22;23.80;99.90
33139;DHT22;19501;50.948;5.316;2023-06-22T09:42:48;23.70;99.90
33139;DHT22;19501;50.948;5.316;2023-06-22T09:45:13;23.90;99.90
33139;DHT22;19501;50.948;5.316;2023-06-22T09:47:41;24.00;99.90
33139;DHT22;19501;50.948;5.316;2023-06-22T09:50:08;24.00;99.90
33139;DHT22;19501;50.948;5.316;2023-06-22T09:52:34;24.20;99.90
33139;DHT22;19501;50.948;5.316;2023-06-22T09:54:59;24.30;99.90
33139;DHT22;19501;50.948;5.316;2023-06-22T09:57:25;24.00;99.90
33139;DHT22;19501;50.948;5.316;2023-06-22T09:59:50;23.90;99.90
33139;DHT22;19501;50.948;5.316;2023-06-22T10:02:16;23.80;99.90
33139;DHT22;19501;50.948;5.316;2023-06-22T10:04:42;23.70;99.90
33139;DHT22;19501;50.948;5.316;2023-06-22T10:07:08;23.60;99.90
33139;DHT22;19501;50.948;5.316;2023-06-22T10:09:33;23.60;99.90
33139;DHT22;19501;50.948;5.316;2023-06-22T10:11:59;23.70;99.90
33139;DHT22;19501;50.948;5.316;2023-06-22T10:14:25;24.00;99.90
33139;DHT22;19501;50.948;5.316;2023-06-22T10:16:52;24.10;99.90
33139;DHT22;19501;50.948;5.316;2023-06-22T10:19:18;24.10;99.90
33139;DHT22;19501;50.948;5.316;2023-06-22T10:21:44;23.50;99.90
33139;DHT22;19501;50.948;5.316;2023-06-22T10:24:09;23.00;99.90
33139;DHT22;19501;50.948;5.316;2023-06-22T10:26:36;22.60;99.90
33139;DHT22;19501;50.948;5.316;2023-06-22T10:29:03;22.50;99.90
33139;DHT22;19501;50.948;5.316;2023-06-22T10:31:29;22.70;99.90
33139;DHT22;19501;50.948;5.316;2023-06-22T10:33:55;22.60;99.90
33139;DHT22;19501;50.948;5.316;2023-06-22T10:36:22;22.50;99.90
33139;DHT22;19501;50.948;5.316;2023-06-22T10:38:48;22.50;99.90
33139;DHT22;19501;50.948;5.316;2023-06-22T10:41:14;22.20;99.90
33139;DHT22;19501;50.948;5.316;2023-06-22T10:43:40;22.20;99.90
33139;DHT22;19501;50.948;5.316;2023-06-22T10:46:06;21.90;99.90
33139;DHT22;19501;50.948;5.316;2023-06-22T10:48:32;21.70;99.90
33139;DHT22;19501;50.948;5.316;2023-06-22T10:50:58;21.40;99.90
33139;DHT22;19501;50.948;5.316;2023-06-22T10:53:23;21.10;99.90
33139;DHT22;19501;50.948;5.316;2023-06-22T10:55:49;21.20;99.90
33139;DHT22;19501;50.948;5.316;2023-06-22T10:58:15;21.40;99.90
33139;DHT22;19501;50.948;5.316;2023-06-22T11:00:40;21.50;99.90
33139;DHT22;19501;50.948;5.316;2023-06-22T11:03:06;21.40;99.90
33139;DHT22;19501;50.948;5.316;2023-06-22T11:05:32;21.30;99.90
33139;DHT22;19501;50.948;5.316;2023-06-22T11:07:58;21.50;99.90
33139;DHT22;19501;50.948;5.316;2023-06-22T11:10:25;21.50;99.90
33139;DHT22;19501;50.948;5.316;2023-06-22T11:12:52;21.60;99.90
33139;DHT22;19501;50.948;5.316;2023-06-22T11:15:18;21.70;99.90
33139;DHT22;19501;50.948;5.316;2023-06-22T11:17:44;21.90;99.90
33139;DHT22;19501;50.948;5.316;2023-06-22T11:20:11;22.10;99.90
33139;DHT22;19501;50.948;5.316;2023-06-22T11:22:38;22.20;99.90
33139;DHT22;19501;50.948;5.316;2023-06-22T11:25:05;22.50;99.90
33139;DHT22;19501;50.948;5.316;2023-06-22T11:27:31;22.70;99.90
33139;DHT22;19501;50.948;5.316;2023-06-22T11:29:57;22.90;99.90
33139;DHT22;19501;50.948;5.316;2023-06-22T11:32:25;23.20;99.90
33139;DHT22;19501;50.948;5.316;2023-06-22T11:34:51;23.50;99.90
33139;DHT22;19501;50.948;5.316;2023-06-22T11:37:17;23.90;99.90
33139;DHT22;19501;50.948;5.316;2023-06-22T11:39:42;24.20;99.90
33139;DHT22;19501;50.948;5.316;2023-06-22T11:42:11;24.50;99.90
33139;DHT22;19501;50.948;5.316;2023-06-22T11:44:37;24.50;99.90
33139;DHT22;19501;50.948;5.316;2023-06-22T11:47:03;24.20;99.90
33139;DHT22;19501;50.948;5.316;2023-06-22T11:49:32;23.70;99.90
33139;DHT22;19501;50.948;5.316;2023-06-22T11:51:58;23.10;99.90
33139;DHT22;19501;50.948;5.316;2023-06-22T11:54:24;22.90;99.90
33139;DHT22;19501;50.948;5.316;2023-06-22T11:56:49;22.60;99.90
33139;DHT22;19501;50.948;5.316;2023-06-22T11:59:15;22.60;99.90
33139;DHT22;19501;50.948;5.316;2023-06-22T12:01:41;22.50;99.90
33139;DHT22;19501;50.948;5.316;2023-06-22T12:04:06;22.60;99.90
33139;DHT22;19501;50.948;5.316;2023-06-22T12:06:32;22.40;99.90
33139;DHT22;19501;50.948;5.316;2023-06-22T12:08:58;22.40;99.90
33139;DHT22;19501;50.948;5.316;2023-06-22T12:11:24;22.20;99.90
33139;DHT22;19501;50.948;5.316;2023-06-22T12:13:50;21.90;99.90
33139;DHT22;19501;50.948;5.316;2023-06-22T12:16:18;21.70;99.90
33139;DHT22;19501;50.948;5.316;2023-06-22T12:18:43;21.70;99.90
33139;DHT22;19501;50.948;5.316;2023-06-22T12:21:09;21.70;99.90
33139;DHT22;19501;50.948;5.316;2023-06-22T12:23:35;21.70;99.90
33139;DHT22;19501;50.948;5.316;2023-06-22T12:26:00;21.70;99.90
33139;DHT22;19501;50.948;5.316;2023-06-22T12:28:27;21.70;99.90
33139;DHT22;19501;50.948;5.316;2023-06-22T12:30:52;21.80;99.90
33139;DHT22;19501;50.948;5.316;2023-06-22T12:33:18;21.70;99.90
33139;DHT22;19501;50.948;5.316;2023-06-22T12:35:46;21.50;99.90
33139;DHT22;19501;50.948;5.316;2023-06-22T12:38:14;21.20;99.90
33139;DHT22;19501;50.948;5.316;2023-06-22T12:40:40;21.30;99.90
33139;DHT22;19501;50.948;5.316;2023-06-22T12:43:05;21.30;99.90
33139;DHT22;19501;50.948;5.316;2023-06-22T12:45:33;21.40;99.90
33139;DHT22;19501;50.948;5.316;2023-06-22T12:47:59;21.30;99.90
33139;DHT22;19501;50.948;5.316;2023-06-22T12:50:25;21.10;99.90
33139;DHT22;19501;50.948;5.316;2023-06-22T12:52:50;21.00;99.90
33139;DHT22;19501;50.948;5.316;2023-06-22T12:55:16;20.80;99.90
33139;DHT22;19501;50.948;5.316;2023-06-22T12:57:42;20.70;99.90
33139;DHT22;19501;50.948;5.316;2023-06-22T13:00:08;20.80;99.90
33139;DHT22;19501;50.948;5.316;2023-06-22T13:02:35;20.80;99.90
33139;DHT22;19501;50.948;5.316;2023-06-22T13:05:02;20.70;99.90
33139;DHT22;19501;50.948;5.316;2023-06-22T13:07:30;20.80;99.90
33139;DHT22;19501;50.948;5.316;2023-06-22T13:09:56;20.70;99.90
33139;DHT22;19501;50.948;5.316;2023-06-22T13:12:21;20.70;99.90
33139;DHT22;19501;50.948;5.316;2023-06-22T13:14:50;20.50;99.90
33139;DHT22;19501;50.948;5.316;2023-06-22T13:17:15;20.50;99.90
33139;DHT22;19501;50.948;5.316;2023-06-22T13:19:41;20.60;99.90
33139;DHT22;19501;50.948;5.316;2023-06-22T13:22:26;20.60;99.90
33139;DHT22;19501;50.948;5.316;2023-06-22T13:24:53;20.50;99.90
33139;DHT22;19501;50.948;5.316;2023-06-22T13:27:19;20.30;99.90
33139;DHT22;19501;50.948;5.316;2023-06-22T13:29:44;20.20;99.90
33139;DHT22;19501;50.948;5.316;2023-06-22T13:32:10;20.10;99.90
33139;DHT22;19501;50.948;5.316;2023-06-22T13:34:35;19.90;99.90
33139;DHT22;19501;50.948;5.316;2023-06-22T13:37:03;19.90;99.90
33139;DHT22;19501;50.948;5.316;2023-06-22T13:39:29;20.00;99.90
33139;DHT22;19501;50.948;5.316;2023-06-22T13:41:56;20.00;99.90
33139;DHT22;19501;50.948;5.316;2023-06-22T13:44:21;20.00;99.90
33139;DHT22;19501;50.948;5.316;2023-06-22T13:46:47;19.80;99.90
33139;DHT22;19501;50.948;5.316;2023-06-22T13:49:13;19.80;99.90
33139;DHT22;19501;50.948;5.316;2023-06-22T13:51:39;19.70;99.90
33139;DHT22;19501;50.948;5.316;2023-06-22T13:54:04;19.70;99.90
33139;DHT22;19501;50.948;5.316;2023-06-22T13:56:30;19.70;99.90
33139;DHT22;19501;50.948;5.316;2023-06-22T13:58:56;19.70;99.90
33139;DHT22;19501;50.948;5.316;2023-06-22T14:01:22;19.70;99.90
33139;DHT22;19501;50.948;5.316;2023-06-22T14:03:50;19.70;99.90
33139;DHT22;19501;50.948;5.316;2023-06-22T14:06:16;19.60;99.90
33139;DHT22;19501;50.948;5.316;2023-06-22T14:08:42;19.40;99.90
33139;DHT22;19501;50.948;5.316;2023-06-22T14:11:07;19.50;99.90
33139;DHT22;19501;50.948;5.316;2023-06-22T14:13:33;19.50;99.90
33139;DHT22;19501;50.948;5.316;2023-06-22T14:16:01;19.40;99.90
33139;DHT22;19501;50.948;5.316;2023-06-22T14:18:27;19.40;99.90
33139;DHT22;19501;50.948;5.316;2023-06-22T14:20:52;19.40;99.90
33139;DHT22;19501;50.948;5.316;2023-06-22T14:23:18;19.40;99.90
33139;DHT22;19501;50.948;5.316;2023-06-22T14:25:43;19.30;99.90
33139;DHT22;19501;50.948;5.316;2023-06-22T14:28:09;19.30;99.90
33139;DHT22;19501;50.948;5.316;2023-06-22T14:30:38;19.30;99.90
33139;DHT22;19501;50.948;5.316;2023-06-22T14:33:04;19.20;99.90
33139;DHT22;19501;50.948;5.316;2023-06-22T14:35:29;19.20;99.90
33139;DHT22;19501;50.948;5.316;2023-06-22T14:37:55;19.00;99.90
33139;DHT22;19501;50.948;5.316;2023-06-22T14:40:20;19.10;99.90
33139;DHT22;19501;50.948;5.316;2023-06-22T14:42:46;19.10;99.90
33139;DHT22;19501;50.948;5.316;2023-06-22T14:45:12;18.90;99.90
33139;DHT22;19501;50.948;5.316;2023-06-22T14:47:38;19.00;99.90
33139;DHT22;19501;50.948;5.316;2023-06-22T14:50:05;19.00;99.90
33139;DHT22;19501;50.948;5.316;2023-06-22T14:52:31;18.90;99.90
33139;DHT22;19501;50.948;5.316;2023-06-22T14:54:56;18.90;99.90
33139;DHT22;19501;50.948;5.316;2023-06-22T14:57:22;18.90;99.90
33139;DHT22;19501;50.948;5.316;2023-06-22T14:59:49;18.90;99.90
33139;DHT22;19501;50.948;5.316;2023-06-22T15:02:15;18.80;99.90
33139;DHT22;19501;50.948;5.316;2023-06-22T15:04:40;18.80;99.90
33139;DHT22;19501;50.948;5.316;2023-06-22T15:07:06;18.70;99.90
33139;DHT22;19501;50.948;5.316;2023-06-22T15:09:32;18.70;99.90
33139;DHT22;19501;50.948;5.316;2023-06-22T15:11:58;18.70;99.90
33139;DHT22;19501;50.948;5.316;2023-06-22T15:14:29;18.80;99.90
33139;DHT22;19501;50.948;5.316;2023-06-22T15:16:55;18.80;99.90
33139;DHT22;19501;50.948;5.316;2023-06-22T15:19:21;18.80;99.90
33139;DHT22;19501;50.948;5.316;2023-06-22T15:21:46;18.80;99.90
33139;DHT22;19501;50.948;5.316;2023-06-22T15:24:12;18.80;99.90
33139;DHT22;19501;50.948;5.316;2023-06-22T15:26:38;18.70;99.90
33139;DHT22;19501;50.948;5.316;2023-06-22T15:29:04;18.80;99.90